createdAt,value
2023-01-27T00:01:47.614Z,100719.40
2023-01-27T00:07:41.228Z,100730.60
2023-01-27T00:13:40.570Z,100734.60
2023-01-27T00:18:47.166Z,100737.60
2023-01-27T00:24:32.079Z,100733.00
2023-01-27T00:29:52.932Z,100749.40
2023-01-27T00:35:13.319Z,100737.20
2023-01-27T00:40:23.281Z,100745.60
2023-01-27T00:45:47.891Z,100742.00
2023-01-27T00:50:58.277Z,100744.20
2023-01-27T00:56:12.565Z,100745.20
2023-01-27T01:01:38.025Z,100752.60
2023-01-27T01:06:53.365Z,100761.80
2023-01-27T01:12:07.291Z,100759.80
2023-01-27T01:17:10.852Z,100763.00
2023-01-27T01:22:16.518Z,100762.60
2023-01-27T01:27:23.144Z,100757.20
2023-01-27T01:32:49.262Z,100750.00
2023-01-27T01:38:04.136Z,100751.20
2023-01-27T01:43:21.112Z,100762.00
2023-01-27T01:48:31.986Z,100762.40
2023-01-27T01:53:47.537Z,100755.40
2023-01-27T01:58:56.489Z,100751.40
2023-01-27T02:04:08.234Z,100754.40
2023-01-27T02:09:26.040Z,100754.80
2023-01-27T02:14:32.802Z,100761.00
2023-01-27T02:20:47.177Z,100761.40
2023-01-27T02:26:08.421Z,100766.60
2023-01-27T02:31:30.759Z,100771.20
2023-01-27T02:36:49.751Z,100777.20
2023-01-27T02:42:04.348Z,100775.00
2023-01-27T02:47:20.984Z,100777.20
2023-01-27T02:52:34.087Z,100783.60
2023-01-27T02:57:40.585Z,100781.80
2023-01-27T03:02:59.537Z,100782.80
2023-01-27T03:08:11.246Z,100785.20
2023-01-27T03:13:46.990Z,100787.00
2023-01-27T03:19:06.623Z,100784.80
2023-01-27T03:24:36.557Z,100787.20
2023-01-27T03:30:08.277Z,100789.20
2023-01-27T03:35:18.486Z,100793.40
2023-01-27T03:40:40.530Z,100802.20
2023-01-27T03:46:08.685Z,100810.40
2023-01-27T03:51:43.983Z,100803.40
2023-01-27T03:56:50.415Z,100804.00
2023-01-27T04:02:15.326Z,100804.40
2023-01-27T04:07:24.126Z,100804.80
2023-01-27T04:12:58.364Z,100806.80
2023-01-27T04:18:10.237Z,100813.00
2023-01-27T04:24:18.315Z,100821.00
2023-01-27T04:29:34.998Z,100827.80
2023-01-27T04:35:00.654Z,100837.40
2023-01-27T04:40:07.351Z,100844.20
2023-01-27T04:45:31.516Z,100856.20
2023-01-27T04:50:57.684Z,100870.60
2023-01-27T04:56:28.356Z,100870.40
2023-01-27T05:01:52.151Z,100880.00
2023-01-27T05:06:58.073Z,100881.00
2023-01-27T05:12:03.885Z,100875.00
2023-01-27T05:17:10.439Z,100877.60
2023-01-27T05:22:33.895Z,100884.00
2023-01-27T05:28:00.482Z,100891.80
2023-01-27T05:33:17.996Z,100887.80
2023-01-27T05:38:40.387Z,100888.00
2023-01-27T05:44:07.773Z,100888.40
2023-01-27T05:49:22.551Z,100891.00
2023-01-27T05:54:28.951Z,100896.60
2023-01-27T05:59:39.675Z,100902.80
2023-01-27T06:04:45.162Z,100907.80
2023-01-27T06:09:48.185Z,100914.00
2023-01-27T06:15:04.738Z,100922.60
2023-01-27T06:20:12.391Z,100926.80
2023-01-27T06:25:18.325Z,100942.00
2023-01-27T06:30:24.247Z,100936.40
2023-01-27T06:35:42.915Z,100940.60
2023-01-27T06:40:56.176Z,100944.60
2023-01-27T06:46:06.181Z,100949.60
2023-01-27T06:51:09.906Z,100954.40
2023-01-27T06:56:13.085Z,100947.40
2023-01-27T07:01:16.273Z,100947.20
2023-01-27T07:06:28.293Z,100950.60
2023-01-27T07:11:37.302Z,100948.80
2023-01-27T07:16:40.473Z,100949.60
2023-01-27T07:22:20.248Z,100943.60
2023-01-27T07:27:26.945Z,100947.40
2023-01-27T07:32:30.503Z,100953.00
2023-01-27T07:37:34.421Z,100966.40
2023-01-27T07:42:43.215Z,100970.00
2023-01-27T07:47:46.292Z,100976.40
2023-01-27T07:52:52.574Z,100976.80
2023-01-27T07:57:56.663Z,100983.80
2023-01-27T08:03:06.347Z,100972.60
2023-01-27T08:08:09.928Z,100986.40
2023-01-27T08:13:22.433Z,100981.60
2023-01-27T08:18:27.582Z,100993.40
2023-01-27T08:23:44.401Z,100994.00
2023-01-27T08:28:52.186Z,100998.40
2023-01-27T08:33:55.391Z,100999.20
2023-01-27T08:39:13.647Z,101000.60
2023-01-27T08:44:16.689Z,101006.60
2023-01-27T08:49:22.620Z,101013.40
2023-01-27T08:54:25.550Z,101013.80
2023-01-27T08:59:29.023Z,101019.60
2023-01-27T09:04:32.132Z,101021.40
2023-01-27T09:09:35.303Z,101024.60
2023-01-27T09:14:58.543Z,101027.20
2023-01-27T09:20:02.480Z,101033.40
2023-01-27T09:25:14.025Z,101033.00
2023-01-27T09:30:45.870Z,101042.60
2023-01-27T09:36:02.849Z,101037.40
2023-01-27T09:42:00.415Z,101052.00
2023-01-27T09:47:37.981Z,101065.80
2023-01-27T09:53:14.506Z,101068.20
2023-01-27T09:58:48.825Z,101060.00
2023-01-27T10:04:38.203Z,101059.20
2023-01-27T10:10:11.123Z,101051.40
2023-01-27T10:15:39.664Z,101060.00
2023-01-27T10:21:09.427Z,101064.40
2023-01-27T10:27:20.185Z,101065.80
2023-01-27T10:32:53.571Z,101061.80
2023-01-27T10:38:28.329Z,101055.80
2023-01-27T10:43:58.806Z,101062.60
2023-01-27T10:49:24.490Z,101052.40
2023-01-27T10:54:42.069Z,101058.00
2023-01-27T11:06:03.824Z,101055.00
2023-01-27T11:11:28.350Z,101064.40
2023-01-27T11:16:43.615Z,101068.20
2023-01-27T11:22:06.780Z,101070.40
2023-01-27T11:27:29.529Z,101064.60
2023-01-27T11:33:28.213Z,101068.00
2023-01-27T11:38:45.400Z,101067.40
2023-01-27T11:43:52.225Z,101066.00
2023-01-27T11:49:01.737Z,101070.80
2023-01-27T11:54:33.679Z,101060.40
2023-01-27T12:00:08.326Z,101062.40
2023-01-27T12:05:28.994Z,101063.20
2023-01-27T12:10:45.734Z,101063.00
2023-01-27T12:16:05.448Z,101071.60
2023-01-27T12:21:27.934Z,101072.00
2023-01-27T12:26:59.162Z,101062.80
2023-01-27T12:32:02.986Z,101065.00
2023-01-27T12:37:37.369Z,101065.20
2023-01-27T12:42:50.281Z,101064.00
2023-01-27T12:48:19.684Z,101062.40
2023-01-27T12:53:28.211Z,101064.00
2023-01-27T12:59:16.677Z,101067.00
2023-01-27T13:04:29.010Z,101064.60
2023-01-27T13:10:35.694Z,101067.00
2023-01-27T13:16:26.378Z,101075.80
2023-01-27T13:22:26.840Z,101072.20
2023-01-27T13:27:54.776Z,101091.40
2023-01-27T13:33:43.419Z,101095.00
2023-01-27T13:39:02.519Z,101097.20
2023-01-27T13:45:28.024Z,101099.00
2023-01-27T13:50:46.848Z,101104.40
2023-01-27T13:56:07.993Z,101096.40
2023-01-27T14:02:12.873Z,101108.20
2023-01-27T14:07:58.709Z,101111.40
2023-01-27T14:13:49.470Z,101119.20
2023-01-27T14:19:28.056Z,101120.60
2023-01-27T14:25:24.839Z,101125.40
2023-01-27T14:31:10.202Z,101122.60
2023-01-27T14:36:28.342Z,101133.00
2023-01-27T14:42:17.157Z,101131.00
2023-01-27T14:48:22.692Z,101148.00
2023-01-27T14:54:00.771Z,101145.60
2023-01-27T15:00:10.391Z,101149.80
2023-01-27T15:06:44.599Z,101159.60
2023-01-27T15:13:08.904Z,101161.60
2023-01-27T15:19:32.465Z,101158.40
2023-01-27T15:25:29.762Z,101167.60
2023-01-27T15:30:41.577Z,101169.40
2023-01-27T15:36:42.317Z,101172.80
2023-01-27T15:41:54.264Z,101170.60
2023-01-27T15:47:42.703Z,101168.40
2023-01-27T15:53:52.747Z,101177.00
2023-01-27T15:59:07.160Z,101189.00
2023-01-27T16:04:33.292Z,101192.20
2023-01-27T16:09:58.790Z,101198.80
2023-01-27T16:15:33.474Z,101189.40
2023-01-27T16:21:41.420Z,101192.60
2023-01-27T16:27:55.905Z,101197.60
2023-01-27T16:33:29.028Z,101202.00
2023-01-27T16:39:23.518Z,101211.60
2023-01-27T16:44:54.667Z,101209.80
2023-01-27T16:50:00.588Z,101214.80
2023-01-27T16:55:40.379Z,101217.00
2023-01-27T17:00:44.899Z,101218.80
2023-01-27T17:06:19.002Z,101224.20
2023-01-27T17:11:56.425Z,101217.00
2023-01-27T17:17:07.887Z,101218.20
2023-01-27T17:22:55.545Z,101207.60
2023-01-27T17:28:21.983Z,101220.60
2023-01-27T17:33:46.915Z,101224.60
2023-01-27T17:39:05.686Z,101234.40
2023-01-27T17:44:30.106Z,101236.80
2023-01-27T17:49:47.977Z,101246.00
2023-01-27T17:54:54.578Z,101246.00
2023-01-27T18:00:21.518Z,101254.00
2023-01-27T18:05:50.348Z,101253.00
2023-01-27T18:11:45.787Z,101263.00
2023-01-27T18:17:13.160Z,101256.20
2023-01-27T18:22:50.403Z,101262.40
2023-01-27T18:27:59.691Z,101266.40
2023-01-27T18:33:43.936Z,101265.60
2023-01-27T18:38:59.929Z,101272.60
2023-01-27T18:44:56.774Z,101269.00
2023-01-27T18:50:50.274Z,101262.40
2023-01-27T18:55:55.933Z,101270.20
2023-01-27T19:01:34.398Z,101268.60
2023-01-27T19:07:05.332Z,101269.80
2023-01-27T19:12:24.993Z,101273.40
2023-01-27T19:18:08.313Z,101280.60
2023-01-27T19:24:09.648Z,101287.80
2023-01-27T19:29:14.656Z,101287.20
2023-01-27T19:34:20.466Z,101293.80
2023-01-27T19:39:51.705Z,101296.20
2023-01-27T19:44:55.468Z,101294.40
2023-01-27T19:50:47.464Z,101289.40
2023-01-27T19:55:58.018Z,101285.20
2023-01-27T20:01:39.861Z,101284.00
2023-01-27T20:06:44.226Z,101288.80
2023-01-27T20:12:21.188Z,101287.00
2023-01-27T20:17:37.634Z,101283.20
2023-01-27T20:23:20.499Z,101288.60
2023-01-27T20:28:42.625Z,101292.00
2023-01-27T20:33:54.598Z,101279.60
2023-01-27T20:39:03.615Z,101283.20
2023-01-27T20:44:16.341Z,101287.80
2023-01-27T20:49:43.766Z,101292.60
2023-01-27T20:55:19.877Z,101280.60
2023-01-27T21:00:31.582Z,101277.00
2023-01-27T21:05:49.471Z,101282.40
2023-01-27T21:11:11.222Z,101284.80
2023-01-27T21:16:40.325Z,101284.00
2023-01-27T21:22:03.686Z,101287.80
2023-01-27T21:27:44.803Z,101287.60
2023-01-27T21:32:50.685Z,101284.60
2023-01-27T21:38:16.818Z,101287.80
2023-01-27T21:44:09.373Z,101294.20
2023-01-27T21:50:02.217Z,101282.60
2023-01-27T21:55:42.910Z,101290.80
2023-01-27T22:01:06.581Z,101293.40
2023-01-27T22:07:07.858Z,101291.80
2023-01-27T22:12:17.200Z,101294.80
2023-01-27T22:17:40.724Z,101297.20
2023-01-27T22:23:20.521Z,101304.20
2023-01-27T22:29:08.679Z,101292.60
2023-01-27T22:34:34.787Z,101284.20
2023-01-27T22:39:50.685Z,101281.00
2023-01-27T22:45:22.758Z,101278.20
2023-01-27T22:50:31.245Z,101278.40
2023-01-27T22:55:44.172Z,101278.60
2023-01-27T23:00:53.813Z,101275.20
2023-01-27T23:06:16.526Z,101279.00
2023-01-27T23:12:09.527Z,101270.60
2023-01-27T23:18:02.465Z,101266.40
2023-01-27T23:23:39.617Z,101263.20
2023-01-27T23:29:24.136Z,101268.20
2023-01-27T23:35:23.566Z,101261.20
2023-01-27T23:40:29.963Z,101261.60
2023-01-27T23:46:30.524Z,101265.20
2023-01-27T23:52:59.975Z,101269.20
2023-01-27T23:58:25.044Z,101269.20
